KR-0413 weather

Jangnim 1(il)-dong Heliport
Busan, Busan Gwang'yeogsi, South Korea

Public forecast

Using degrees Celsius for public forecast. Weather courtesy of forecast.io.

METAR (pilot weather report)

Closest report is Gimhae International Airport, 7.0 nm (12.9 km) NNW. Retrieved 2019/08/24 10:00 UTC (12 minutes ago):

RKPK 241000Z 30003KT CAVOK 26/19 Q1010

TAF (pilot weather forecast)

Closest forecast is Gimhae International Airport, 7.0 nm (12.9 km) NNW. Retrieved 2019/08/24 06:00 UTC (4 hours ago):

TAF COR RKPK 240500Z 2406/2512 24008KT 9999 SCT030 BKN200 TN19/2420Z TX28/2504Z BECMG 2411/2412 33006KT BECMG 2504/2505 24008KT